createdAt,value
2023-07-18T00:02:00.538Z,2.60
2023-07-18T00:04:29.302Z,2.93
2023-07-18T00:06:57.257Z,2.60
2023-07-18T00:09:25.578Z,2.53
2023-07-18T00:11:53.474Z,2.90
2023-07-18T00:14:21.338Z,2.80
2023-07-18T00:16:49.377Z,2.80
2023-07-18T00:19:20.707Z,2.43
2023-07-18T00:21:49.033Z,2.63
2023-07-18T00:24:17.000Z,2.70
2023-07-18T00:26:44.944Z,2.87
2023-07-18T00:29:12.789Z,2.50
2023-07-18T00:31:40.702Z,2.87
2023-07-18T00:34:08.557Z,2.20
2023-07-18T00:36:37.753Z,2.80
2023-07-18T00:39:05.700Z,2.90
2023-07-18T00:41:33.547Z,2.30
2023-07-18T00:44:01.445Z,2.90
2023-07-18T00:46:30.394Z,2.23
2023-07-18T00:48:59.075Z,2.73
2023-07-18T00:54:51.298Z,2.80
2023-07-18T00:57:19.214Z,2.87
2023-07-18T00:59:47.020Z,2.60
2023-07-18T01:02:14.951Z,2.90
2023-07-18T01:04:42.873Z,2.97
2023-07-18T01:07:10.757Z,2.60
2023-07-18T01:09:38.637Z,2.50
2023-07-18T01:12:08.990Z,2.93
2023-07-18T01:14:36.828Z,2.87
2023-07-18T01:17:06.698Z,2.50
2023-07-18T01:19:36.461Z,2.30
2023-07-18T01:22:06.069Z,2.60
2023-07-18T01:24:33.950Z,2.60
2023-07-18T01:27:01.769Z,2.73
2023-07-18T01:29:29.608Z,3.07
2023-07-18T01:31:57.433Z,2.50
2023-07-18T01:34:25.397Z,2.87
2023-07-18T01:36:54.018Z,2.87
2023-07-18T01:39:23.233Z,2.70
2023-07-18T01:41:51.073Z,2.60
2023-07-18T01:44:19.109Z,2.80
2023-07-18T01:46:47.029Z,2.43
2023-07-18T01:49:14.927Z,3.17
2023-07-18T01:51:42.817Z,2.40
2023-07-18T01:54:10.679Z,2.60
2023-07-18T01:56:41.315Z,2.70
2023-07-18T01:59:09.240Z,2.93
2023-07-18T02:01:37.132Z,2.57
2023-07-18T02:04:05.092Z,2.57
2023-07-18T02:06:32.885Z,2.30
2023-07-18T02:09:00.786Z,2.80
2023-07-18T02:11:28.616Z,2.87
2023-07-18T02:13:57.851Z,2.97
2023-07-18T02:16:25.715Z,2.73
2023-07-18T02:18:54.840Z,2.57
2023-07-18T02:21:22.846Z,3.10
2023-07-18T02:23:50.671Z,3.00
2023-07-18T02:26:18.485Z,2.90
2023-07-18T02:28:46.412Z,2.80
2023-07-18T02:31:15.592Z,2.97
2023-07-18T02:33:43.486Z,3.23
2023-07-18T02:36:12.786Z,3.20
2023-07-18T02:38:40.668Z,3.37
2023-07-18T02:41:08.467Z,3.30
2023-07-18T02:43:36.299Z,3.30
2023-07-18T02:46:04.066Z,3.07
2023-07-18T02:48:33.248Z,3.17
2023-07-18T02:51:01.020Z,3.60
2023-07-18T02:53:28.900Z,3.37
2023-07-18T02:55:56.668Z,3.33
2023-07-18T02:58:24.491Z,3.77
2023-07-18T03:00:53.185Z,3.40
2023-07-18T03:03:23.936Z,3.47
2023-07-18T03:05:54.830Z,3.47
2023-07-18T03:08:22.604Z,3.70
2023-07-18T03:10:51.402Z,4.07
2023-07-18T03:13:19.198Z,3.63
2023-07-18T03:15:47.769Z,3.90
2023-07-18T03:18:15.580Z,4.13
2023-07-18T03:20:43.404Z,4.73
2023-07-18T03:23:12.632Z,4.13
2023-07-18T03:25:40.474Z,3.73
2023-07-18T03:28:09.702Z,3.67
2023-07-18T03:30:37.793Z,3.73
2023-07-18T03:33:05.676Z,4.20
2023-07-18T03:35:33.808Z,4.40
2023-07-18T03:38:01.634Z,4.40
2023-07-18T03:40:30.821Z,4.33
2023-07-18T03:42:58.621Z,4.20
2023-07-18T03:45:26.411Z,3.80
2023-07-18T03:47:54.286Z,4.23
2023-07-18T03:50:22.110Z,3.80
2023-07-18T03:52:50.025Z,3.80
2023-07-18T03:55:17.889Z,4.30
2023-07-18T03:57:47.073Z,4.13
2023-07-18T04:00:18.429Z,4.00
2023-07-18T04:02:47.673Z,4.00
2023-07-18T04:05:16.324Z,4.20
2023-07-18T04:07:45.327Z,3.73
2023-07-18T04:10:13.836Z,3.93
2023-07-18T04:12:41.681Z,4.30
2023-07-18T04:15:12.812Z,4.30
2023-07-18T04:17:41.202Z,4.10
2023-07-18T04:20:09.724Z,4.10
2023-07-18T04:22:37.617Z,4.50
2023-07-18T04:25:06.223Z,4.20
2023-07-18T04:27:34.014Z,4.07
2023-07-18T04:30:01.761Z,3.70
2023-07-18T04:32:32.011Z,3.63
2023-07-18T04:34:59.845Z,4.00
2023-07-18T04:37:29.350Z,4.47
2023-07-18T04:39:57.184Z,3.87
2023-07-18T04:42:24.985Z,4.13
2023-07-18T04:44:52.729Z,4.17
2023-07-18T04:47:21.455Z,3.97
2023-07-18T04:49:50.681Z,4.40
2023-07-18T04:52:18.745Z,3.67
2023-07-18T04:54:46.543Z,3.40
2023-07-18T04:57:14.349Z,3.67
2023-07-18T04:59:42.862Z,3.57
2023-07-18T05:02:10.728Z,4.13
2023-07-18T05:04:38.617Z,3.30
2023-07-18T05:07:08.411Z,3.50
2023-07-18T05:09:36.449Z,3.17
2023-07-18T05:12:04.661Z,3.57
2023-07-18T05:14:32.864Z,3.20
2023-07-18T05:17:00.805Z,3.40
2023-07-18T05:19:28.610Z,3.63
2023-07-18T05:21:56.364Z,3.07
2023-07-18T05:24:25.937Z,3.13
2023-07-18T05:26:54.126Z,3.30
2023-07-18T05:29:21.919Z,3.60
2023-07-18T05:31:49.723Z,3.40
2023-07-18T05:34:17.848Z,2.97
2023-07-18T05:36:45.727Z,3.13
2023-07-18T05:39:13.556Z,2.93
2023-07-18T05:41:42.690Z,3.23
2023-07-18T05:44:11.346Z,3.30
2023-07-18T05:46:41.040Z,3.30
2023-07-18T05:49:09.282Z,2.93
2023-07-18T05:51:37.051Z,3.00
2023-07-18T05:54:05.569Z,3.10
2023-07-18T05:56:33.751Z,2.87
2023-07-18T05:59:06.479Z,3.30
2023-07-18T06:01:34.683Z,3.17
2023-07-18T06:04:02.773Z,2.90
2023-07-18T06:06:30.596Z,3.00
2023-07-18T06:08:58.379Z,3.03
2023-07-18T06:11:26.189Z,2.63
2023-07-18T06:13:53.949Z,3.37
2023-07-18T06:16:23.177Z,3.17
2023-07-18T06:18:50.972Z,2.63
2023-07-18T06:21:18.998Z,3.10
2023-07-18T06:23:47.705Z,2.50
2023-07-18T06:26:15.721Z,2.57
2023-07-18T06:28:43.566Z,2.90
2023-07-18T06:31:11.960Z,3.07
2023-07-18T06:33:41.606Z,2.80
2023-07-18T06:36:09.477Z,3.03
2023-07-18T06:38:37.345Z,3.13
2023-07-18T06:41:05.136Z,2.67
2023-07-18T06:43:33.573Z,3.03
2023-07-18T06:46:01.703Z,2.90
2023-07-18T06:48:29.534Z,2.83
2023-07-18T06:51:00.783Z,2.43
2023-07-18T06:53:28.834Z,3.10
2023-07-18T06:55:56.966Z,2.83
2023-07-18T06:58:24.877Z,2.70
2023-07-18T07:00:52.791Z,2.90
2023-07-18T07:03:20.751Z,2.97
2023-07-18T07:05:48.686Z,3.10
2023-07-18T07:08:20.228Z,3.00
2023-07-18T07:10:48.059Z,3.17
2023-07-18T07:13:15.919Z,3.03
2023-07-18T07:15:43.717Z,2.77
2023-07-18T07:18:11.541Z,2.60
2023-07-18T07:20:39.324Z,3.40
2023-07-18T07:23:07.178Z,2.97
2023-07-18T07:25:36.439Z,2.87
2023-07-18T07:28:05.401Z,3.30
2023-07-18T07:30:33.290Z,3.10
2023-07-18T07:33:01.329Z,3.67
2023-07-18T07:35:30.502Z,3.23
2023-07-18T07:37:58.390Z,3.53
2023-07-18T07:40:26.210Z,3.20
2023-07-18T07:42:55.352Z,3.20
2023-07-18T07:45:23.225Z,3.03
2023-07-18T07:47:51.189Z,3.57
2023-07-18T07:50:19.027Z,3.40
2023-07-18T07:52:47.504Z,3.33
2023-07-18T07:55:15.468Z,3.70
2023-07-18T07:57:43.452Z,3.20
2023-07-18T08:00:14.258Z,3.10
2023-07-18T08:02:42.105Z,3.10
2023-07-18T08:05:10.485Z,3.63
2023-07-18T08:07:39.215Z,3.40
2023-07-18T08:10:07.818Z,2.87
2023-07-18T08:12:36.167Z,3.13
2023-07-18T08:15:05.287Z,3.17
2023-07-18T08:17:34.578Z,3.10
2023-07-18T08:20:05.490Z,3.20
2023-07-18T08:22:35.477Z,3.13
2023-07-18T08:25:05.062Z,3.23
2023-07-18T08:27:32.981Z,3.03
2023-07-18T08:30:00.786Z,3.33
2023-07-18T08:32:30.237Z,2.80
2023-07-18T08:34:59.586Z,3.03
2023-07-18T08:37:27.434Z,3.00
2023-07-18T08:39:55.232Z,3.37
2023-07-18T08:42:26.978Z,2.67
2023-07-18T08:44:56.244Z,2.80
2023-07-18T08:47:24.170Z,2.53
2023-07-18T08:49:52.072Z,2.83
2023-07-18T08:52:21.282Z,3.28
2023-07-18T08:54:50.899Z,3.33
2023-07-18T08:57:19.461Z,2.90
2023-07-18T08:59:48.971Z,3.30
2023-07-18T09:02:16.846Z,3.07
2023-07-18T09:04:47.671Z,3.00
2023-07-18T09:07:15.755Z,3.05
2023-07-18T09:09:49.096Z,3.00
2023-07-18T09:12:17.023Z,3.00
2023-07-18T09:14:45.012Z,3.00
2023-07-18T09:17:13.190Z,2.97
2023-07-18T09:19:41.977Z,2.65
2023-07-18T09:22:11.262Z,2.60
2023-07-18T09:24:39.937Z,3.20
2023-07-18T09:27:10.635Z,2.38
2023-07-18T09:29:38.784Z,2.70
2023-07-18T09:32:09.111Z,2.70
2023-07-18T09:34:37.095Z,2.63
2023-07-18T09:37:07.233Z,3.17
2023-07-18T09:39:35.583Z,2.67
2023-07-18T09:42:04.204Z,2.92
2023-07-18T09:44:37.263Z,3.00
2023-07-18T09:47:06.258Z,2.97
2023-07-18T09:49:35.124Z,2.80
2023-07-18T09:52:05.700Z,2.50
2023-07-18T09:54:34.288Z,2.20
2023-07-18T09:57:05.630Z,2.85
2023-07-18T09:59:38.580Z,3.25
2023-07-18T10:02:07.898Z,2.83
2023-07-18T10:04:36.087Z,2.50
2023-07-18T10:07:04.842Z,2.97
2023-07-18T10:09:34.020Z,2.83
2023-07-18T10:12:09.328Z,2.40
2023-07-18T10:14:51.757Z,3.08
2023-07-18T10:17:39.515Z,2.83
2023-07-18T10:20:14.770Z,2.78
2023-07-18T10:22:50.681Z,2.58
2023-07-18T10:25:22.096Z,2.47
2023-07-18T10:27:50.845Z,2.35
2023-07-18T10:30:21.274Z,2.55
2023-07-18T10:32:54.266Z,2.65
2023-07-18T10:35:23.773Z,2.80
2023-07-18T10:37:54.028Z,2.90
2023-07-18T10:40:37.227Z,3.13
2023-07-18T10:43:07.660Z,3.35
2023-07-18T10:45:40.750Z,3.03
2023-07-18T10:48:13.752Z,2.70
2023-07-18T10:50:41.805Z,2.53
2023-07-18T10:53:12.916Z,2.67
2023-07-18T10:55:40.820Z,2.53
2023-07-18T10:58:12.505Z,2.92
2023-07-18T11:00:41.985Z,3.00
2023-07-18T11:03:12.382Z,3.00
2023-07-18T11:05:41.615Z,2.75
2023-07-18T11:08:09.380Z,2.97
2023-07-18T11:10:37.290Z,3.05
2023-07-18T11:13:06.018Z,2.30
2023-07-18T11:15:33.818Z,2.90
2023-07-18T11:18:03.997Z,2.72
2023-07-18T11:20:31.954Z,2.83
2023-07-18T11:23:01.601Z,2.63
2023-07-18T11:25:29.608Z,2.40
2023-07-18T11:27:57.361Z,2.67
2023-07-18T11:30:26.141Z,2.63
2023-07-18T11:32:54.012Z,2.50
2023-07-18T11:35:24.525Z,2.70
2023-07-18T11:37:53.586Z,2.40
2023-07-18T11:40:22.928Z,2.85
2023-07-18T11:42:51.857Z,2.72
2023-07-18T11:45:21.579Z,2.65
2023-07-18T11:47:51.055Z,2.63
2023-07-18T11:50:19.086Z,2.47
2023-07-18T11:52:50.072Z,2.42
2023-07-18T11:55:18.716Z,2.58
2023-07-18T11:57:47.008Z,2.58
2023-07-18T12:00:15.964Z,2.17
2023-07-18T12:02:45.612Z,2.60
2023-07-18T12:05:15.348Z,2.22
2023-07-18T12:07:44.419Z,2.60
2023-07-18T12:10:15.894Z,2.50
2023-07-18T12:12:45.795Z,2.72
2023-07-18T12:15:14.730Z,2.65
2023-07-18T12:17:42.695Z,2.72
2023-07-18T12:20:12.001Z,2.70
2023-07-18T12:22:40.125Z,2.50
2023-07-18T12:25:08.642Z,2.53
2023-07-18T12:27:38.251Z,2.50
2023-07-18T12:30:07.459Z,2.90
2023-07-18T12:32:35.360Z,2.50
2023-07-18T12:35:03.731Z,2.78
2023-07-18T12:37:31.604Z,2.80
2023-07-18T12:39:59.448Z,2.50
2023-07-18T12:42:27.311Z,2.60
2023-07-18T12:44:56.520Z,2.45
2023-07-18T12:47:24.443Z,2.70
2023-07-18T12:52:22.959Z,2.35
2023-07-18T12:54:50.764Z,2.55
2023-07-18T12:57:18.561Z,2.30
2023-07-18T12:59:46.872Z,2.75
2023-07-18T13:02:16.449Z,2.45
2023-07-18T13:04:44.425Z,2.17
2023-07-18T13:07:12.301Z,2.33
2023-07-18T13:09:40.594Z,2.72
2023-07-18T13:12:09.578Z,2.50
2023-07-18T13:14:37.414Z,2.67
2023-07-18T13:17:05.559Z,2.80
2023-07-18T13:19:35.307Z,2.40
2023-07-18T13:22:03.276Z,2.58
2023-07-18T13:24:31.106Z,2.40
2023-07-18T13:26:58.919Z,2.40
2023-07-18T13:29:26.752Z,2.58
2023-07-18T13:31:54.624Z,2.15
2023-07-18T13:34:23.160Z,2.40
2023-07-18T13:36:52.435Z,2.25
2023-07-18T13:39:20.225Z,2.50
2023-07-18T13:41:48.131Z,2.58
2023-07-18T13:44:16.022Z,2.80
2023-07-18T13:46:43.982Z,2.28
2023-07-18T13:49:11.808Z,2.42
2023-07-18T13:51:40.491Z,2.42
2023-07-18T13:54:09.810Z,2.38
2023-07-18T13:56:37.628Z,2.22
2023-07-18T13:59:05.449Z,2.33
2023-07-18T14:01:33.347Z,2.47
2023-07-18T14:04:01.253Z,2.53
2023-07-18T14:06:29.228Z,2.85
2023-07-18T14:08:57.021Z,2.30
2023-07-18T14:11:28.344Z,2.47
2023-07-18T14:13:57.816Z,2.20
2023-07-18T14:16:25.827Z,2.30
2023-07-18T14:18:57.316Z,2.70
2023-07-18T14:21:25.626Z,3.00
2023-07-18T14:23:53.704Z,2.55
2023-07-18T14:26:22.378Z,2.70
2023-07-18T14:28:51.911Z,2.67
2023-07-18T14:31:19.799Z,2.40
2023-07-18T14:33:59.948Z,2.47
2023-07-18T14:36:33.058Z,2.60
2023-07-18T14:39:00.943Z,2.40
2023-07-18T14:41:28.790Z,2.30
2023-07-18T14:43:58.106Z,2.50
2023-07-18T14:46:26.020Z,2.30
2023-07-18T14:48:54.144Z,2.42
2023-07-18T14:51:22.594Z,2.20
2023-07-18T14:53:50.476Z,2.53
2023-07-18T14:56:18.530Z,2.40
2023-07-18T14:58:46.525Z,2.45
2023-07-18T15:01:15.803Z,2.22
2023-07-18T15:03:43.670Z,2.22
2023-07-18T15:06:11.527Z,2.38
2023-07-18T15:08:40.278Z,2.30
2023-07-18T15:11:08.141Z,2.45
2023-07-18T15:13:35.930Z,2.45
2023-07-18T15:16:04.271Z,2.60
2023-07-18T15:18:33.478Z,2.60
2023-07-18T15:21:01.540Z,2.42
2023-07-18T15:23:29.352Z,2.40
2023-07-18T15:25:58.289Z,2.53
2023-07-18T15:28:26.132Z,2.45
2023-07-18T15:30:53.961Z,2.42
2023-07-18T15:33:27.370Z,2.53
2023-07-18T15:35:57.107Z,2.47
2023-07-18T15:38:25.216Z,2.22
2023-07-18T15:40:53.013Z,2.42
2023-07-18T15:43:20.841Z,2.50
2023-07-18T15:45:49.144Z,2.53
2023-07-18T15:48:17.347Z,2.58
2023-07-18T15:50:45.194Z,2.40
2023-07-18T15:53:14.374Z,2.22
2023-07-18T15:55:42.444Z,2.25
2023-07-18T15:58:10.510Z,2.63
2023-07-18T16:00:38.366Z,2.65
2023-07-18T16:03:06.439Z,2.50
2023-07-18T16:05:34.426Z,2.45
2023-07-18T16:08:02.211Z,2.47
2023-07-18T16:10:31.452Z,2.45
2023-07-18T16:12:59.398Z,2.47
2023-07-18T16:15:27.389Z,2.33
2023-07-18T16:17:55.513Z,2.13
2023-07-18T16:20:23.531Z,2.50
2023-07-18T16:22:51.915Z,2.30
2023-07-18T16:25:19.867Z,2.90
2023-07-18T16:27:50.123Z,2.47
2023-07-18T16:30:19.154Z,2.67
2023-07-18T16:32:47.138Z,2.33
2023-07-18T16:35:15.340Z,2.67
2023-07-18T16:37:43.377Z,2.40
2023-07-18T16:40:12.207Z,2.60
2023-07-18T16:42:40.006Z,2.38
2023-07-18T16:45:10.151Z,2.20
2023-07-18T16:47:38.021Z,2.40
2023-07-18T16:50:07.025Z,2.25
2023-07-18T16:52:34.845Z,2.22
2023-07-18T16:55:02.754Z,2.33
2023-07-18T16:57:30.567Z,2.45
2023-07-18T16:59:58.429Z,2.33
2023-07-18T17:02:27.853Z,2.78
2023-07-18T17:04:56.089Z,2.30
2023-07-18T17:07:24.889Z,2.30
2023-07-18T17:09:52.662Z,2.50
2023-07-18T17:12:20.486Z,2.47
2023-07-18T17:14:48.278Z,2.63
2023-07-18T17:17:16.147Z,2.60
2023-07-18T17:19:58.906Z,2.95
2023-07-18T17:22:34.221Z,2.70
2023-07-18T17:25:04.585Z,3.45
2023-07-18T17:27:32.470Z,3.63
2023-07-18T17:30:01.793Z,3.70
2023-07-18T17:32:29.794Z,3.10
2023-07-18T17:34:59.031Z,2.80
2023-07-18T17:37:27.046Z,2.50
2023-07-18T17:42:27.025Z,2.85
2023-07-18T17:44:56.684Z,2.53
2023-07-18T17:47:24.628Z,2.67
2023-07-18T17:49:52.482Z,2.90
2023-07-18T17:52:21.686Z,2.63
2023-07-18T17:54:49.503Z,2.80
2023-07-18T17:57:17.389Z,2.80
2023-07-18T17:59:45.242Z,3.25
2023-07-18T18:02:13.191Z,3.33
2023-07-18T18:04:41.257Z,3.20
2023-07-18T18:07:10.142Z,2.58
2023-07-18T18:09:41.280Z,2.80
2023-07-18T18:12:09.521Z,2.97
2023-07-18T18:14:37.373Z,3.20
2023-07-18T18:17:05.861Z,3.00
2023-07-18T18:19:33.907Z,2.72
2023-07-18T18:22:02.464Z,2.53
2023-07-18T18:24:30.454Z,2.80
2023-07-18T18:27:00.040Z,2.55
2023-07-18T18:29:29.591Z,2.60
2023-07-18T18:31:57.416Z,2.70
2023-07-18T18:34:25.212Z,2.45
2023-07-18T18:36:53.057Z,2.70
2023-07-18T18:39:21.840Z,2.47
2023-07-18T18:41:49.694Z,3.10
2023-07-18T18:44:18.865Z,2.65
2023-07-18T18:46:46.763Z,2.88
2023-07-18T18:49:26.125Z,2.55
2023-07-18T18:51:55.338Z,2.58
2023-07-18T18:54:23.483Z,2.38
2023-07-18T18:56:53.841Z,2.70
2023-07-18T18:59:23.162Z,2.50
2023-07-18T19:01:52.024Z,2.35
2023-07-18T19:04:20.296Z,3.00
2023-07-18T19:06:48.202Z,2.63
2023-07-18T19:09:16.036Z,3.40
2023-07-18T19:11:43.864Z,3.45
2023-07-18T19:14:11.770Z,3.22
2023-07-18T19:16:41.219Z,2.63
2023-07-18T19:19:09.471Z,2.60
2023-07-18T19:21:37.343Z,2.83
2023-07-18T19:24:05.915Z,2.58
2023-07-18T19:26:34.089Z,2.08
2023-07-18T19:29:01.941Z,2.40
2023-07-18T19:31:29.841Z,2.55
2023-07-18T19:33:59.095Z,2.35
2023-07-18T19:36:26.961Z,2.35
2023-07-18T19:38:54.817Z,2.40
2023-07-18T19:41:24.313Z,2.45
2023-07-18T19:43:52.232Z,2.20
2023-07-18T19:46:20.511Z,2.50
2023-07-18T19:48:48.439Z,2.35
2023-07-18T19:51:18.039Z,2.65
2023-07-18T19:53:46.257Z,2.13
2023-07-18T19:56:14.753Z,2.70
2023-07-18T19:58:43.154Z,2.42
2023-07-18T20:01:11.010Z,2.47
2023-07-18T20:03:56.428Z,2.80
2023-07-18T20:06:28.299Z,2.78
2023-07-18T20:08:56.216Z,2.63
2023-07-18T20:11:24.140Z,2.30
2023-07-18T20:13:52.416Z,2.58
2023-07-18T20:16:20.515Z,3.00
2023-07-18T20:18:51.699Z,2.45
2023-07-18T20:21:22.061Z,2.78
2023-07-18T20:23:51.609Z,2.47
2023-07-18T20:26:19.470Z,2.55
2023-07-18T20:28:47.550Z,2.35
2023-07-18T20:31:15.470Z,2.47
2023-07-18T20:33:43.817Z,2.60
2023-07-18T20:36:11.752Z,2.67
2023-07-18T20:38:39.628Z,2.38
2023-07-18T20:41:10.307Z,2.30
2023-07-18T20:43:38.370Z,2.50
2023-07-18T20:46:08.704Z,2.47
2023-07-18T20:48:37.884Z,2.38
2023-07-18T20:51:06.937Z,2.60
2023-07-18T20:53:34.860Z,2.40
2023-07-18T20:56:02.782Z,2.42
2023-07-18T20:58:32.350Z,2.58
2023-07-18T21:01:00.227Z,2.33
2023-07-18T21:03:28.901Z,2.25
2023-07-18T21:05:56.879Z,2.30
2023-07-18T21:08:24.702Z,2.85
2023-07-18T21:10:52.488Z,2.22
2023-07-18T21:13:20.317Z,2.72
2023-07-18T21:15:49.533Z,2.80
2023-07-18T21:18:17.395Z,2.72
2023-07-18T21:20:45.214Z,3.00
2023-07-18T21:23:13.126Z,2.75
2023-07-18T21:25:41.023Z,2.97
2023-07-18T21:28:08.945Z,2.80
2023-07-18T21:30:36.783Z,2.88
2023-07-18T21:33:06.142Z,3.25
2023-07-18T21:35:34.022Z,3.65
2023-07-18T21:38:01.841Z,2.95
2023-07-18T21:40:29.674Z,3.30
2023-07-18T21:42:57.479Z,2.80
2023-07-18T21:45:25.317Z,2.90
2023-07-18T21:47:53.173Z,2.80
2023-07-18T21:50:22.529Z,2.90
2023-07-18T21:52:50.315Z,3.15
2023-07-18T21:55:18.182Z,2.60
2023-07-18T21:57:46.112Z,3.10
2023-07-18T22:00:15.840Z,2.10
2023-07-18T22:02:43.829Z,2.60
2023-07-18T22:05:11.738Z,2.63
2023-07-18T22:07:40.919Z,2.55
2023-07-18T22:10:10.016Z,2.70
2023-07-18T22:12:38.364Z,2.65
2023-07-18T22:15:08.983Z,2.75
2023-07-18T22:17:36.979Z,2.70
2023-07-18T22:20:05.325Z,2.80
2023-07-18T22:22:33.197Z,2.95
2023-07-18T22:25:02.938Z,2.70
2023-07-18T22:27:30.869Z,2.70
2023-07-18T22:29:58.695Z,2.30
2023-07-18T22:32:26.544Z,3.00
2023-07-18T22:34:54.329Z,2.50
2023-07-18T22:37:23.625Z,2.80
2023-07-18T22:39:51.472Z,2.67
2023-07-18T22:42:21.961Z,2.70
2023-07-18T22:44:50.518Z,2.50
2023-07-18T22:47:19.096Z,2.70
2023-07-18T22:49:47.539Z,2.30
2023-07-18T22:52:19.575Z,2.35
2023-07-18T22:54:48.233Z,3.03
2023-07-18T22:57:16.083Z,2.90
2023-07-18T22:59:48.021Z,2.60
2023-07-18T23:02:16.049Z,2.70
2023-07-18T23:04:43.922Z,2.35
2023-07-18T23:07:11.782Z,2.80
2023-07-18T23:09:39.862Z,2.80
2023-07-18T23:12:09.189Z,2.70
2023-07-18T23:14:37.087Z,2.65
2023-07-18T23:17:06.489Z,2.50
2023-07-18T23:19:34.292Z,2.83
2023-07-18T23:22:02.229Z,2.70
2023-07-18T23:24:30.431Z,2.42
2023-07-18T23:26:58.244Z,3.00
2023-07-18T23:29:26.136Z,2.53
2023-07-18T23:31:53.968Z,2.58
2023-07-18T23:34:23.187Z,2.53
2023-07-18T23:36:50.988Z,2.50
2023-07-18T23:39:19.130Z,2.10
2023-07-18T23:41:46.929Z,2.80
2023-07-18T23:44:14.804Z,2.60
2023-07-18T23:46:42.733Z,2.30
2023-07-18T23:49:10.644Z,2.53
2023-07-18T23:51:40.809Z,2.35
2023-07-18T23:54:08.834Z,2.65
2023-07-18T23:56:36.659Z,2.35
2023-07-18T23:59:04.513Z,2.17
